• Join FlightAware (Why Join?)
  • Login
  • US Flag 
Gobble Gobble! 
03:53AM EST


 

Airport Tracker/Info


-or-


 

Live Flight TrackerFlight Track Log ✈ DAL1214 ✈ 03-May-2013 ✈ KDTW - KMCI

Flight Track Log - Related Links

Times and Time Zones

All times are in EDT time to prevent confusion due to time zone crossing. See the DAL1214 flight status page for this flight to view local times or setup timezone preferences in your user account.

Time Position Orientation Groundspeed Altitude Reporting Facility
EDT Latitude Longitude Course Direction KTS MPH feet Rate Location/Type
04:09PM 42.1972 -83.3608 275° West 165 190 1,500  Level Cleveland Center
04:10PM 42.1472 -83.4539 234° Southwest 261 300 4,000 2,220 Climbing Cleveland Center
04:11PM 42.1222 -83.5283 246° West 287 330 6,800 2,640 Climbing Cleveland Center
04:12PM 42.3549 -83.9440 292° West  Level FlightAware Approximate
04:12PM 42.1614 -83.6308 297° West 297 342 9,400  Level Cleveland Center
04:13PM 42.3988 -84.0904 292° West  Level FlightAware Approximate
04:13PM 42.2086 -83.7342 302° West 312 359 10,100  Level Cleveland Center
04:14PM 42.4207 -84.2436 275° West  Level FlightAware Approximate
04:14PM 42.2656 -83.8550 303° West 329 379 12,200  Level Cleveland Center
04:15PM 42.3206 -83.9758 302° West 354 407 13,800 1,800 Climbing Cleveland Center
04:16PM 42.3833 -84.1056 303° West 388 447 15,800 1,920 Climbing Cleveland Center
04:17PM 42.4286 -84.2544 292° West 406 467 17,700 1,740 Climbing Cleveland Center
04:19PM 42.4347 -84.4933 272° West 444 511 20,400 1,680 Climbing Chicago Center
04:20PM 42.4394 -84.6650 272° West 454 522 22,100 1,800 Climbing Chicago Center
04:21PM 42.4436 -84.8733 272° West 461 531 24,200 1,860 Climbing Chicago Center
04:22PM 42.4478 -85.0472 272° West 463 533 26,000 1,620 Climbing Chicago Center
04:23PM 42.4511 -85.2214 272° West 462 532 27,600 1,440 Climbing Chicago Center
04:24PM 42.4536 -85.3919 271° West 456 525 29,000 1,200 Climbing Chicago Center
04:25PM 42.4572 -85.5636 272° West 456 525 30,100 1,200 Climbing Chicago Center
04:26PM 42.4589 -85.7319 271° West 449 517 31,500 900 Climbing Chicago Center
04:27PM 42.4608 -85.8997 271° West 444 511 32,000 240 Climbing Chicago Center
04:28PM 42.4608 -86.1017 270° West 446 513 32,000  Level Chicago Center
04:29PM 42.4117 -86.2519 246° West 439 505 32,000  Level Chicago Center
04:30PM 42.3597 -86.3972 244° Southwest 431 496 32,000  Level Chicago Center
04:31PM 42.3081 -86.5447 245° Southwest 434 499 32,000  Level Chicago Center
04:32PM 42.2567 -86.6889 244° Southwest 430 495 32,000  Level Chicago Center
04:33PM 42.1956 -86.8636 245° Southwest 430 495 32,000  Level Chicago Center
04:34PM 42.1436 -87.0075 244° Southwest 430 495 32,000  Level Chicago Center
04:35PM 42.0889 -87.1508 243° Southwest 430 495 32,000  Level Chicago Center
04:36PM 42.0378 -87.2950 245° Southwest 430 495 32,000  Level Chicago Center
04:37PM 41.9839 -87.4375 243° Southwest 429 494 32,000  Level Chicago Center
04:38PM 41.9308 -87.5800 243° Southwest 428 493 32,000  Level Chicago Center
04:39PM 41.8664 -87.7525 243° Southwest 433 498 32,000  Level Chicago Center
04:40PM 41.8122 -87.8958 243° Southwest 433 498 32,000  Level Chicago Center
04:41PM 41.7589 -88.0372 243° Southwest 432 497 32,000  Level Chicago Center
04:42PM 41.7039 -88.1783 242° Southwest 433 498 32,000  Level Chicago Center
04:44PM 41.6411 -88.3497 244° Southwest 434 499 32,000  Level Chicago Center
04:45PM 41.5881 -88.4906 243° Southwest 433 498 32,000  Level Chicago Center
04:46PM 41.5336 -88.6306 243° Southwest 432 497 32,000  Level Chicago Center
04:47PM 41.4794 -88.7731 243° Southwest 434 499 32,000  Level Chicago Center
04:48PM 41.4131 -88.9425 242° Southwest 434 499 32,000  Level Chicago Center
04:49PM 41.3572 -89.0839 242° Southwest 436 502 32,000  Level Chicago Center
04:50PM 41.3064 -89.2172 243° Southwest 434 499 32,000  Level Chicago Center
04:51PM 41.2514 -89.3558 242° Southwest 428 493 32,000  Level Chicago Center
04:52PM 41.1856 -89.5222 242° Southwest 425 489 32,000  Level Chicago Center
04:53PM 41.1344 -89.6617 244° Southwest 424 488 32,000  Level Chicago Center
04:54PM 41.0883 -89.8058 247° West 427 491 32,000  Level Chicago Center
04:55PM 41.0422 -89.9511 247° West 432 497 32,000  Level Chicago Center
04:56PM 40.9911 -90.1083 247° West 439 505 32,000  Level Chicago Center
04:57PM 40.9361 -90.2753 246° West 439 505 32,000  Level Chicago Center
04:58PM 40.8886 -90.4225 247° West 440 506 32,000  Level Chicago Center
04:59PM 40.8406 -90.5692 247° West 436 502 32,000  Level Chicago Center
05:00PM 40.7892 -90.7167 245° Southwest 444 511 32,000  Level Chicago Center
05:01PM 40.7408 -90.8642 247° West 440 506 32,000  Level Chicago Center
05:02PM 40.6814 -91.0408 246° West 441 507 32,000  Level Chicago Center
05:03PM 40.6308 -91.1886 246° West 443 510 32,000  Level Chicago Center
05:04PM 40.5847 -91.3194 245° Southwest 447 514 32,000  Level Chicago Center
05:05PM 40.5228 -91.4978 245° Southwest 449 517 32,000  Level Chicago Center
05:06PM 40.4728 -91.6472 246° West 449 517 32,000  Level Chicago Center
05:07PM 40.4514 -91.7058 244° Southwest 449 517 32,000  Level Kansas City Center
05:08PM 40.4003 -91.8536 246° West 447 514 32,000  Level Kansas City Center
05:09PM 40.3367 -92.0289 245° Southwest 446 513 32,000  Level Kansas City Center
05:10PM 40.2839 -92.1767 245° Southwest 447 514 32,000  Level Kansas City Center
05:11PM 40.2314 -92.3244 245° Southwest 447 514 32,000  Level Kansas City Center
05:12PM 40.1742 -92.4817 245° Southwest 448 516 32,000  Level Kansas City Center
05:13PM 40.1242 -92.6236 245° Southwest 449 517 32,000  Level Kansas City Center
05:14PM 40.0611 -92.7850 243° Southwest 448 516 32,000 -420 Level Kansas City Center
05:15PM 40.0103 -92.9139 243° Southwest 446 513 31,200 -1,260 Descending Kansas City Center
05:16PM 39.9422 -93.0889 243° Southwest 452 520 29,500 -1,500 Descending Kansas City Center
05:17PM 39.8844 -93.2369 243° Southwest 458 527 28,100 -2,040 Descending Kansas City Center
05:18PM 39.8267 -93.3831 243° Southwest 458 527 25,400 -2,520 Descending Kansas City Center
05:19PM 39.7706 -93.5214 242° Southwest 445 512 23,000 -2,220 Descending Kansas City Center
05:20PM 39.7203 -93.6564 244° Southwest 422 486 20,900 -2,340 Descending Kansas City Center
05:21PM 39.6656 -93.7939 243° Southwest 388 447 18,200 -2,340 Descending Kansas City Center
05:22PM 39.6164 -93.9086 241° Southwest 379 436 16,100 -2,520 Descending Kansas City Center
05:23PM 39.5528 -94.0328 236° Southwest 371 427 13,000 -2,040 Descending Kansas City Center
05:24PM 39.4997 -94.1397 237° Southwest 367 422 12,000 -540 Descending Kansas City Center
05:25PM 39.4378 -94.2594 236° Southwest 360 414 12,000  Level Kansas City Center
05:26PM 39.3906 -94.3511 236° Southwest 315 362 12,000 -420 Level Kansas City Center
05:27PM 39.3458 -94.4400 237° Southwest 263 303 11,200 -1,200 Descending Kansas City Center
05:28PM 39.3081 -94.5147 237° Southwest 258 297 9,600 -1,620 Descending Kansas City Center
05:30PM 39.2636 -94.5978 235° Southwest 253 291 7,900 -1,440 Descending Kansas City Center
05:31PM 39.1986 -94.6256 198° South 258 297 6,700 -1,200 Descending Kansas City Center
05:32PM 39.1217 -94.6511 194° South 255 293 5,500 -840 Descending Kansas City Center
05:33PM 39.0978 -94.7094 242° Southwest 202 232 5,000 -600 Descending Kansas City Center
05:34PM 39.1278 -94.7425 319° Northwest 171 197 4,300 -720 Descending Kansas City Center